AirNav   Everest Fuels
 
 1326 users online  

28XS Flying G Airport
Kaufman, Texas, USA

GOING TO KAUFMAN?


FAA INFORMATION EFFECTIVE 19 MAY 2022

Location

FAA Identifier: 28XS
Lat/Long: 32-38-45.4770N 096-19-30.9310W
32-38.757950N 096-19.515517W
32.6459658,-96.3252586
(estimated)
Elevation: 470 ft. / 143 m (estimated)
Variation: 06E (1985)
From city: 4 miles N of KAUFMAN, TX
Time zone: UTC -5 (UTC -6 during Standard Time)
Zip code: 75142

Airport Operations

Airport use: Private use. Permission required prior to landing
Control tower: no
ARTCC: FORT WORTH CENTER
FSS: FORT WORTH FLIGHT SERVICE STATION
Attendance: UNATNDD
Wind indicator: yes
Segmented circle: no

Airport Communications

WX ASOS at TRL (5 nm NE): 119.275 (972-551-1334)
WX AWOS-3 at HQZ (12 nm NW): 118.175 (972-222-7631)
WX AWOS-3PT at F46 (18 nm N): 121.25 (972-772-6699)

Nearby radio navigation aids

VOR radial/distance  VOR name  Freq  Var
CQYr343/28.1CEDAR CREEK VORTAC114.8006E
CVEr111/32.7COWBOY VOR/DME116.2006E
TTTr104/38.5MAVERICK VOR/DME113.1006E

 
NDB name  Hdg/Dist  Freq  Var  ID
MESQUITE131/14.224803EPQF .--. --.- ..-.
CROSSROADS324/39.621508ECSZ -.-. ... --..

Airport Services

Airframe service: NONE
Powerplant service: NONE
Bottled oxygen: NONE
Bulk oxygen: NONE

Runway Information

Runway 4/22

Dimensions: 1400 x 30 ft. / 427 x 9 m
Surface: turf, in fair condition
RUNWAY 4  RUNWAY 22
Traffic pattern: leftleft
Obstructions: 4 ft. fence15 ft. trees

Airport Ownership and Management from official FAA records

Ownership: Privately-owned
Owner: JIMMY D GREENHAW
RTE 2
KAUFMAN, TX 75142
Phone 214-932-3445
Manager: JIMMY D GREENHAW
RTE 2
KAUFMAN, TX 75142
Phone 214-932-3445

Additional Remarks

LIVESTOCK ON ARPT.
USE EXTREME CARE: 100' TWR NNE RY 22 THR AT 1000' ON CNTRLN EXTDD.
FOR CD CTC FORT WORTH ARTCC AT 817-858-7584.

Instrument Procedures

There are no published instrument procedures at 28XS.

Some nearby airports with instrument procedures:

KTRL - Terrell Municipal Airport (5 nm NE)
KHQZ - Mesquite Metro Airport (12 nm NW)
F46 - Ralph M Hall/Rockwall Municipal Airport (18 nm N)
KLNC - Lancaster Regional Airport (20 nm W)
7F3 - Caddo Mills Municipal Airport (24 nm N)
 
Loc | Ops | Rwys | IFR | FBO | Links
Com | Nav | Svcs | Stats | Notes

City of Fort Worth
 
Area around 28XS (Flying G Airport)
 
Road maps at: MapQuest Bing Google
 
Aerial photo
No photo
 
Sectional chart

 
Airport distance calculator
Flying to Flying G Airport? Find the distance to fly.

From to 28XS

Sunrise and sunset
Times for 27-May-2022
 Local
(UTC-5)
 Zulu
(UTC)
Morning civil twilight05:5310:53
Sunrise06:2111:21
Sunset20:2401:24
Evening civil twilight20:5201:52

Current date and time
Zulu (UTC)  27-May-2022 16:20:55
Local (UTC-5)  27-May-2022 11:20:55
 
METAR
KTRL 
5nm NE 
271553Z AUTO VRB03KT 10SM CLR 27/11 A3006 RMK AO2 SLP174 T02720106
KHQZ 
12nm NW 
271550Z 00000KT 10SM CLR 26/10 A3006
KF46 
18nm N 
271555Z AUTO 36004KT 10SM CLR 26/10 A3007 RMK AO2 T02560095
TAF
KDAL 
29nm NW 
271120Z 2712/2812 VRB04KT P6SM SKC FM280000 15008KT P6SM SKC
NOTAMs
Click for the latest NOTAMs
NOTAMs are issued by the DoD/FAA and will open in a separate window not controlled by AirNav.

 

 
 

Would you like to see your business listed on this page?

 If your business provides an interesting product or service to pilots, flight crews, aircraft, or users of the Flying G Airport, you should consider listing it here.  To start the listing process, click on the button below
 
Add a business
 

Other Pages about Flying G Airport

Update a link
 
Copyright © AirNav, LLC. All rights reserved. Privacy Policy  Contact